Time;durP1;ratioP1;P1;durP2;ratioP2;P2;SDS_P1;SDS_P2;PMS_P1;PMS_P2;Temp;Humidity;BMP_temperature;BMP_pressure;BME280_temperature;BME280_humidity;BME280_pressure;Samples;Min_cycle;Max_cycle;Signal;HPM_P1;HPM_P2
2022/03/01 00:00:28;;;;;;;1.33;1.15;;;-2.40;99.90;;;;;;5108278;28;20620;-74
2022/03/01 00:02:53;;;;;;;0.80;0.80;;;-2.50;99.90;;;;;;5107459;28;20207;-74
2022/03/01 00:05:19;;;;;;;1.30;1.20;;;-2.40;99.90;;;;;;5108661;28;20214;-74
2022/03/01 00:07:45;;;;;;;0.80;0.80;;;-2.40;99.90;;;;;;5106025;28;20199;-74
2022/03/01 00:10:11;;;;;;;0.80;0.80;;;-2.40;99.90;;;;;;5108597;28;20283;-74
2022/03/01 00:12:36;;;;;;;0.70;0.70;;;-2.50;99.90;;;;;;5105956;28;20207;-74
2022/03/01 00:15:04;;;;;;;0.80;0.80;;;-2.60;99.90;;;;;;5105276;28;20257;-73
2022/03/01 00:17:29;;;;;;;0.82;0.82;;;-2.60;99.90;;;;;;5108291;28;20211;-74
2022/03/01 00:19:55;;;;;;;0.88;0.88;;;-2.70;99.90;;;;;;5108287;28;20199;-73
2022/03/01 00:22:21;;;;;;;0.80;0.80;;;-2.60;99.90;;;;;;5106903;28;20196;-74
2022/03/01 00:24:47;;;;;;;0.80;0.80;;;-2.60;99.90;;;;;;5105739;28;20220;-74
2022/03/01 00:27:13;;;;;;;0.80;0.80;;;-2.70;99.90;;;;;;5108502;28;20204;-74
2022/03/01 00:29:38;;;;;;;0.80;0.80;;;-2.50;99.90;;;;;;5107426;28;20284;-74
2022/03/01 00:32:04;;;;;;;0.70;0.70;;;-2.50;99.90;;;;;;5108473;28;20221;-74
2022/03/01 00:34:30;;;;;;;0.80;0.80;;;-2.60;99.90;;;;;;5109606;28;20221;-74
2022/03/01 00:36:56;;;;;;;1.45;1.35;;;-2.50;99.90;;;;;;5108385;28;20340;-73
2022/03/01 00:39:21;;;;;;;0.80;0.80;;;-2.50;99.90;;;;;;5105838;28;20208;-74
2022/03/01 00:41:47;;;;;;;0.75;0.75;;;-2.60;99.90;;;;;;5108286;28;20256;-74
2022/03/01 00:44:13;;;;;;;0.77;0.77;;;-2.50;99.90;;;;;;5105158;28;20248;-74
2022/03/01 00:46:39;;;;;;;0.90;0.90;;;-2.40;99.90;;;;;;5104528;28;20203;-74
2022/03/01 00:49:05;;;;;;;0.70;0.70;;;-2.30;99.90;;;;;;5108222;28;20670;-74
2022/03/01 00:51:30;;;;;;;0.80;0.80;;;-2.40;99.90;;;;;;5108053;28;20203;-74
2022/03/01 00:53:56;;;;;;;0.80;0.80;;;-2.30;99.90;;;;;;5108030;28;20297;-74
2022/03/01 00:56:22;;;;;;;0.73;0.73;;;-2.30;99.90;;;;;;5107710;28;20253;-74
2022/03/01 00:58:48;;;;;;;0.80;0.80;;;-2.40;99.90;;;;;;5107003;28;20655;-74
2022/03/01 01:01:13;;;;;;;0.80;0.80;;;-2.50;99.90;;;;;;5106778;28;20570;-74
2022/03/01 01:03:39;;;;;;;0.80;0.80;;;-2.60;99.90;;;;;;5107727;28;20273;-74
2022/03/01 01:06:05;;;;;;;0.90;0.90;;;-2.70;99.90;;;;;;5106863;28;20543;-74
2022/03/01 01:08:31;;;;;;;0.80;0.80;;;-2.70;99.90;;;;;;5106650;28;20199;-74
2022/03/01 01:10:56;;;;;;;0.90;0.90;;;-2.60;99.90;;;;;;5106866;28;20274;-74
2022/03/01 01:13:22;;;;;;;0.80;0.80;;;-2.80;99.90;;;;;;5106475;28;20240;-74
2022/03/01 01:15:48;;;;;;;0.90;0.90;;;-2.90;99.90;;;;;;5092854;28;20740;-74
2022/03/01 01:18:14;;;;;;;1.00;1.00;;;-2.90;99.90;;;;;;5108547;28;20200;-74
2022/03/01 01:20:40;;;;;;;0.90;0.90;;;-3.00;99.90;;;;;;5108787;28;20236;-74
2022/03/01 01:23:05;;;;;;;0.70;0.70;;;-2.90;99.90;;;;;;5106592;28;20216;-74
2022/03/01 01:25:31;;;;;;;0.80;0.80;;;-2.90;99.90;;;;;;5106338;28;20200;-74
2022/03/01 01:27:59;;;;;;;0.80;0.80;;;-2.70;99.90;;;;;;5105380;28;20207;-74
2022/03/01 01:30:27;;;;;;;0.82;0.82;;;-2.60;99.90;;;;;;5105261;28;20219;-74
2022/03/01 01:32:54;;;;;;;1.30;1.20;;;-2.60;99.90;;;;;;5111537;28;20231;-74
2022/03/01 01:35:22;;;;;;;1.20;1.15;;;-2.60;99.90;;;;;;5111436;28;20210;-74
2022/03/01 01:37:48;;;;;;;0.80;0.80;;;-2.60;99.90;;;;;;5111437;28;20207;-74
2022/03/01 01:40:18;;;;;;;0.80;0.80;;;-2.70;99.90;;;;;;5110210;28;20727;-74
2022/03/01 01:42:44;;;;;;;0.90;0.90;;;-2.60;99.90;;;;;;5110270;28;20203;-73
2022/03/01 01:45:11;;;;;;;0.90;0.90;;;-2.50;99.90;;;;;;5110232;28;20573;-74
2022/03/01 01:47:37;;;;;;;0.80;0.80;;;-2.40;99.90;;;;;;5110739;28;20196;-73
2022/03/01 01:50:04;;;;;;;0.77;0.77;;;-2.20;99.90;;;;;;5111179;28;20198;-74
2022/03/01 01:52:30;;;;;;;0.70;0.70;;;-2.20;99.90;;;;;;5107248;28;20277;-74
2022/03/01 01:54:55;;;;;;;0.90;0.90;;;-2.10;99.90;;;;;;5099201;28;20197;-74
2022/03/01 01:57:22;;;;;;;1.67;1.27;;;-2.00;99.90;;;;;;5085492;28;20202;-74
2022/03/01 01:59:50;;;;;;;0.77;0.77;;;-1.90;99.90;;;;;;5107479;28;20294;-74
2022/03/01 02:02:20;;;;;;;0.80;0.80;;;-1.90;99.90;;;;;;5107269;28;20212;-73
2022/03/01 02:04:46;;;;;;;0.90;0.90;;;-2.00;99.90;;;;;;5110880;28;20208;-74
2022/03/01 02:07:13;;;;;;;0.80;0.80;;;-1.90;99.90;;;;;;5108439;28;20664;-74
2022/03/01 02:09:39;;;;;;;1.10;1.10;;;-1.70;99.90;;;;;;5108028;28;20204;-73
2022/03/01 02:12:05;;;;;;;0.77;0.77;;;-1.70;99.90;;;;;;5111749;28;20219;-73
2022/03/01 02:14:32;;;;;;;0.80;0.80;;;-1.60;99.90;;;;;;5105839;28;20192;-73
2022/03/01 02:17:04;;;;;;;0.85;0.85;;;-1.40;99.90;;;;;;5111490;28;20207;-73
2022/03/01 02:19:30;;;;;;;1.25;1.15;;;-1.40;99.90;;;;;;5111765;28;20713;-74
2022/03/01 02:22:14;;;;;;;0.60;0.60;;;-1.30;99.90;;;;;;5111837;28;20235;-74
2022/03/01 02:24:40;;;;;;;0.77;0.77;;;-1.30;99.90;;;;;;5110952;28;20235;-74
2022/03/01 02:27:06;;;;;;;0.77;0.77;;;-1.40;99.90;;;;;;5112020;28;20654;-74
2022/03/01 02:29:33;;;;;;;0.70;0.70;;;-1.40;99.90;;;;;;5106652;28;20200;-74
2022/03/01 02:32:03;;;;;;;0.80;0.80;;;-1.50;99.90;;;;;;5109246;28;20290;-74
2022/03/01 02:34:29;;;;;;;0.80;0.80;;;-1.50;99.90;;;;;;5107631;28;20214;-75
2022/03/01 02:36:55;;;;;;;0.70;0.70;;;-1.50;99.90;;;;;;5109483;28;20207;-74
2022/03/01 02:39:21;;;;;;;0.80;0.80;;;-1.50;99.90;;;;;;5106560;28;20666;-74
2022/03/01 02:41:47;;;;;;;1.23;1.13;;;-1.50;99.90;;;;;;5107759;28;20634;-74
2022/03/01 02:44:13;;;;;;;0.80;0.80;;;-1.60;99.90;;;;;;5107628;28;20227;-74
2022/03/01 02:46:40;;;;;;;0.80;0.80;;;-1.50;99.90;;;;;;5108910;28;20231;-74
2022/03/01 02:49:07;;;;;;;0.80;0.80;;;-1.60;99.90;;;;;;5109121;28;20269;-74
2022/03/01 02:51:33;;;;;;;0.73;0.73;;;-1.60;99.90;;;;;;5109788;28;20195;-74
2022/03/01 02:54:00;;;;;;;0.60;0.60;;;-1.50;99.90;;;;;;5108740;28;20199;-75
2022/03/01 02:56:27;;;;;;;0.70;0.70;;;-1.40;99.90;;;;;;5109684;28;20206;-74
2022/03/01 02:58:55;;;;;;;1.48;1.35;;;-1.30;99.90;;;;;;5099529;28;20201;-74
2022/03/01 03:01:22;;;;;;;0.80;0.80;;;-1.20;99.90;;;;;;5085312;28;20290;-74
2022/03/01 03:03:49;;;;;;;1.17;1.08;;;-1.20;99.90;;;;;;5099436;28;20243;-74
2022/03/01 03:06:15;;;;;;;0.77;0.77;;;-1.10;99.90;;;;;;5083338;28;20196;-74
2022/03/01 03:08:41;;;;;;;0.82;0.82;;;-1.20;99.90;;;;;;5107041;28;20207;-74
2022/03/01 03:11:07;;;;;;;0.70;0.70;;;-1.10;99.90;;;;;;5092190;28;20279;-74
2022/03/01 03:13:33;;;;;;;0.70;0.70;;;-1.00;99.90;;;;;;5092815;28;20188;-74
2022/03/01 03:15:59;;;;;;;0.70;0.70;;;-0.90;99.90;;;;;;5093808;28;20630;-74
2022/03/01 03:18:25;;;;;;;0.80;0.80;;;-0.90;99.90;;;;;;5107979;28;20246;-74
2022/03/01 03:20:51;;;;;;;0.70;0.70;;;-0.90;99.90;;;;;;5092760;28;20196;-74
2022/03/01 03:23:17;;;;;;;0.77;0.77;;;-0.80;99.90;;;;;;5108795;28;20901;-74
2022/03/01 03:25:43;;;;;;;0.80;0.80;;;-0.80;99.90;;;;;;5073901;28;20216;-73
2022/03/01 03:28:08;;;;;;;0.75;0.75;;;-0.70;99.90;;;;;;5110830;28;20705;-74
2022/03/01 03:30:34;;;;;;;0.75;0.75;;;-0.70;99.90;;;;;;5109370;28;20207;-74
2022/03/01 03:33:00;;;;;;;0.68;0.68;;;-0.70;99.90;;;;;;5092286;28;20665;-74
2022/03/01 03:35:26;;;;;;;0.60;0.60;;;-0.70;99.90;;;;;;5107135;28;20690;-74
2022/03/01 03:37:51;;;;;;;0.80;0.80;;;-0.70;99.90;;;;;;5106572;28;20210;-74
2022/03/01 03:40:17;;;;;;;0.70;0.70;;;-0.60;99.90;;;;;;5107948;27;20211;-74
2022/03/01 03:42:45;;;;;;;1.05;0.85;;;-0.60;99.90;;;;;;5107814;28;20219;-74
2022/03/01 03:45:12;;;;;;;1.15;0.88;;;-0.60;99.90;;;;;;5095353;28;20211;-74
2022/03/01 03:47:38;;;;;;;0.70;0.70;;;-0.60;99.90;;;;;;5092130;28;20290;-74
2022/03/01 03:50:04;;;;;;;0.70;0.70;;;-0.50;99.90;;;;;;5101850;28;20226;-74
2022/03/01 03:52:30;;;;;;;0.80;0.80;;;-0.40;99.90;;;;;;5088536;28;20724;-74
2022/03/01 03:54:56;;;;;;;0.70;0.70;;;-0.50;99.90;;;;;;5092997;28;20234;-74
2022/03/01 03:57:21;;;;;;;0.70;0.70;;;-0.40;99.90;;;;;;5107455;28;20282;-74
2022/03/01 03:59:47;;;;;;;0.70;0.70;;;-0.50;99.90;;;;;;5106419;28;20206;-74
2022/03/01 04:02:13;;;;;;;1.00;1.00;;;-0.50;99.90;;;;;;5096766;28;20196;-74
2022/03/01 04:04:38;;;;;;;0.70;0.70;;;-0.60;99.90;;;;;;5097795;28;20231;-74
2022/03/01 04:07:04;;;;;;;0.65;0.65;;;-0.60;99.90;;;;;;5105049;28;20605;-74
2022/03/01 04:09:30;;;;;;;0.70;0.70;;;-0.60;99.90;;;;;;5108285;28;20583;-75
2022/03/01 04:11:56;;;;;;;1.20;1.10;;;-0.70;99.90;;;;;;5074569;28;20606;-75
2022/03/01 04:14:21;;;;;;;1.63;1.50;;;-0.80;99.90;;;;;;5106787;28;20211;-74
2022/03/01 04:16:47;;;;;;;1.10;1.02;;;-0.90;99.90;;;;;;5109296;28;20239;-74
2022/03/01 04:19:13;;;;;;;0.73;0.73;;;-0.90;99.90;;;;;;5091161;28;20230;-74
2022/03/01 04:21:39;;;;;;;6.13;1.52;;;-0.90;99.90;;;;;;5108478;28;20213;-74
2022/03/01 04:24:06;;;;;;;0.50;0.50;;;-1.00;99.90;;;;;;5108002;28;20231;-74
2022/03/01 04:26:32;;;;;;;0.60;0.60;;;-1.10;99.90;;;;;;5107031;28;20202;-74
2022/03/01 04:28:58;;;;;;;1.08;1.02;;;-1.10;99.90;;;;;;5106030;28;20216;-75
2022/03/01 04:31:24;;;;;;;0.90;0.88;;;-1.00;99.90;;;;;;5108029;28;20732;-74
2022/03/01 04:33:50;;;;;;;0.70;0.70;;;-1.00;99.90;;;;;;5107201;28;20617;-75
2022/03/01 04:36:16;;;;;;;8.43;1.45;;;-1.00;99.90;;;;;;5107115;28;20615;-75
2022/03/01 04:38:43;;;;;;;0.68;0.68;;;-1.00;99.90;;;;;;5105853;28;20603;-74
2022/03/01 04:41:09;;;;;;;0.80;0.80;;;-0.80;99.90;;;;;;5098026;28;20265;-74
2022/03/01 04:43:35;;;;;;;1.17;1.17;;;-0.70;99.90;;;;;;5098777;28;20199;-75
2022/03/01 04:46:01;;;;;;;0.60;0.60;;;-0.70;99.90;;;;;;5108282;28;20229;-75
2022/03/01 04:48:27;;;;;;;0.80;0.80;;;-0.60;99.90;;;;;;5105586;28;20195;-74
2022/03/01 04:50:53;;;;;;;0.70;0.70;;;-0.60;99.90;;;;;;5105852;28;20209;-74
2022/03/01 04:53:19;;;;;;;0.70;0.70;;;-0.60;99.90;;;;;;5108089;28;20200;-74
2022/03/01 04:55:45;;;;;;;0.70;0.70;;;-0.60;99.90;;;;;;5104774;28;20226;-74
2022/03/01 04:58:11;;;;;;;0.80;0.80;;;-0.60;99.90;;;;;;5105734;28;20223;-75
2022/03/01 05:00:36;;;;;;;1.80;1.67;;;-0.70;99.90;;;;;;5106625;28;20297;-74
2022/03/01 05:03:03;;;;;;;0.70;0.70;;;-0.70;99.90;;;;;;5108124;28;20196;-74
2022/03/01 05:05:28;;;;;;;0.90;0.90;;;-0.60;99.90;;;;;;5108472;28;20203;-74
2022/03/01 05:07:55;;;;;;;1.33;1.23;;;-0.50;99.90;;;;;;5112559;28;20279;-75
2022/03/01 05:10:21;;;;;;;0.70;0.70;;;-0.60;99.90;;;;;;5113291;28;20196;-75
2022/03/01 05:12:55;;;;;;;0.70;0.70;;;-0.60;99.90;;;;;;5112307;28;20724;-73
2022/03/01 05:15:22;;;;;;;0.70;0.70;;;-0.60;99.90;;;;;;5096802;28;20200;-74
2022/03/01 05:17:49;;;;;;;0.70;0.70;;;-0.60;99.90;;;;;;5110836;28;20220;-74
2022/03/01 05:20:16;;;;;;;6.20;1.45;;;-0.50;99.90;;;;;;5112256;28;20700;-72
2022/03/01 05:22:42;;;;;;;0.65;0.65;;;-0.50;99.90;;;;;;5110373;28;20574;-73
2022/03/01 05:25:11;;;;;;;0.85;0.85;;;-0.40;99.90;;;;;;5107857;28;20623;-73
2022/03/01 05:27:39;;;;;;;0.80;0.80;;;-0.40;99.90;;;;;;5110952;28;20237;-74
2022/03/01 05:30:07;;;;;;;1.13;1.13;;;-0.40;99.90;;;;;;5110606;28;20204;-74
2022/03/01 05:32:37;;;;;;;0.70;0.70;;;-0.50;99.90;;;;;;5108719;28;20195;-73
2022/03/01 05:35:04;;;;;;;0.70;0.70;;;-0.40;99.90;;;;;;5111540;28;20207;-74
2022/03/01 05:37:31;;;;;;;0.95;0.95;;;-0.30;99.90;;;;;;5109761;28;20199;-74
2022/03/01 05:39:57;;;;;;;0.75;0.75;;;-0.40;99.90;;;;;;5110109;28;20586;-73
2022/03/01 05:42:23;;;;;;;4.30;1.85;;;-0.50;99.90;;;;;;5105707;28;20204;-71
2022/03/01 05:44:49;;;;;;;0.70;0.70;;;-0.40;99.90;;;;;;5098965;28;20572;-75
2022/03/01 05:47:16;;;;;;;3.90;1.45;;;-0.40;99.90;;;;;;5110179;28;20282;-74
2022/03/01 05:49:42;;;;;;;0.80;0.80;;;-0.50;99.90;;;;;;5111077;28;20199;-74
2022/03/01 05:52:08;;;;;;;1.75;1.50;;;-0.40;99.90;;;;;;5109931;28;20226;-75
2022/03/01 05:54:34;;;;;;;2.13;1.92;;;-0.30;99.90;;;;;;5109795;28;20204;-74
2022/03/01 05:57:00;;;;;;;3.30;1.30;;;-0.20;99.90;;;;;;5111209;28;20685;-74
2022/03/01 05:59:26;;;;;;;0.65;0.65;;;-0.20;99.90;;;;;;5094649;28;20716;-74
2022/03/01 06:01:51;;;;;;;1.08;1.00;;;-0.10;99.90;;;;;;5111505;28;20203;-75
2022/03/01 06:04:17;;;;;;;2.25;1.00;;;0.10;99.90;;;;;;5108810;28;20223;-74
2022/03/01 06:06:43;;;;;;;0.80;0.80;;;0.10;99.90;;;;;;5111382;28;20718;-75
2022/03/01 06:09:09;;;;;;;0.80;0.80;;;0.10;99.90;;;;;;5110900;28;20203;-75
2022/03/01 06:11:34;;;;;;;0.73;0.73;;;0.20;99.90;;;;;;5110471;28;20199;-74
2022/03/01 06:14:00;;;;;;;0.82;0.82;;;0.20;99.90;;;;;;5108389;28;20208;-74
2022/03/01 06:16:26;;;;;;;3.80;1.70;;;0.30;99.90;;;;;;5105795;28;20212;-74
2022/03/01 06:18:51;;;;;;;0.80;0.80;;;0.30;99.90;;;;;;5109429;28;20565;-74
2022/03/01 06:21:17;;;;;;;0.80;0.80;;;0.40;99.90;;;;;;5110608;28;20674;-75
2022/03/01 06:23:43;;;;;;;6.90;2.63;;;0.50;99.90;;;;;;5107101;28;20670;-75
2022/03/01 06:26:09;;;;;;;1.67;1.58;;;0.50;99.90;;;;;;5109271;28;20625;-74
2022/03/01 06:28:35;;;;;;;0.57;0.57;;;0.60;99.90;;;;;;5109388;28;20196;-75
2022/03/01 06:31:01;;;;;;;0.60;0.60;;;0.70;99.90;;;;;;5110526;27;20735;-74
2022/03/01 06:33:26;;;;;;;0.90;0.90;;;0.80;99.90;;;;;;5110201;28;20191;-75
2022/03/01 06:35:52;;;;;;;1.33;1.10;;;0.80;99.90;;;;;;5107882;28;20754;-75
2022/03/01 06:38:18;;;;;;;1.73;1.30;;;0.90;99.90;;;;;;5107966;28;20197;-74
2022/03/01 06:40:44;;;;;;;0.70;0.70;;;1.00;99.90;;;;;;5110090;28;20208;-74
2022/03/01 06:43:09;;;;;;;0.73;0.73;;;1.10;99.90;;;;;;5110504;28;20200;-74
2022/03/01 06:45:35;;;;;;;0.70;0.70;;;1.10;99.90;;;;;;5110682;28;20279;-74
2022/03/01 06:48:01;;;;;;;0.70;0.70;;;1.20;99.90;;;;;;5111381;28;20682;-74
2022/03/01 06:50:27;;;;;;;7.53;1.48;;;1.30;99.90;;;;;;5111325;28;20294;-75
2022/03/01 06:52:53;;;;;;;0.60;0.60;;;1.40;99.90;;;;;;5108635;28;20207;-74
2022/03/01 06:55:21;;;;;;;3.05;1.80;;;1.40;99.90;;;;;;5109836;28;20203;-74
2022/03/01 06:57:48;;;;;;;0.70;0.70;;;1.50;99.90;;;;;;5109837;28;20199;-75
2022/03/01 07:00:15;;;;;;;1.23;1.13;;;1.60;99.90;;;;;;5109813;28;20207;-74
2022/03/01 07:02:42;;;;;;;0.60;0.60;;;1.70;99.90;;;;;;5105556;28;20755;-74
2022/03/01 07:05:10;;;;;;;0.85;0.85;;;1.80;99.90;;;;;;5109671;28;20580;-74
2022/03/01 07:07:36;;;;;;;0.68;0.68;;;1.90;99.90;;;;;;5098715;28;20283;-74
2022/03/01 07:10:03;;;;;;;0.90;0.90;;;1.90;99.90;;;;;;5108670;28;20224;-74
2022/03/01 07:12:29;;;;;;;0.82;0.82;;;2.00;99.90;;;;;;5101481;28;20302;-74
2022/03/01 07:14:55;;;;;;;1.65;1.55;;;2.00;99.90;;;;;;5106981;27;20203;-74
2022/03/01 07:17:21;;;;;;;1.48;1.38;;;2.00;99.90;;;;;;5109312;28;20199;-74
2022/03/01 07:19:47;;;;;;;1.95;1.15;;;2.00;99.90;;;;;;5107525;28;20211;-74
2022/03/01 07:22:13;;;;;;;5.78;1.25;;;1.90;99.90;;;;;;5108316;28;20289;-75
2022/03/01 07:24:38;;;;;;;1.00;1.00;;;1.80;99.90;;;;;;5107787;28;20310;-74
2022/03/01 07:27:04;;;;;;;0.60;0.60;;;1.80;99.90;;;;;;5107614;28;20188;-74
2022/03/01 07:29:30;;;;;;;1.13;1.13;;;1.70;99.90;;;;;;5092375;28;20236;-74
2022/03/01 07:31:57;;;;;;;0.70;0.70;;;1.80;99.90;;;;;;5109216;28;20224;-73
2022/03/01 07:34:23;;;;;;;0.60;0.60;;;1.80;99.90;;;;;;5108184;28;20203;-74
2022/03/01 07:36:49;;;;;;;1.13;1.13;;;1.80;99.90;;;;;;5110407;28;20249;-74
2022/03/01 07:39:15;;;;;;;1.05;1.05;;;1.90;99.90;;;;;;5109409;28;20207;-73
2022/03/01 07:41:40;;;;;;;0.68;0.68;;;2.00;99.90;;;;;;5110030;28;20224;-73
2022/03/01 07:44:06;;;;;;;1.33;1.23;;;2.10;99.90;;;;;;5108282;28;20207;-74
2022/03/01 07:46:32;;;;;;;1.05;0.98;;;2.30;99.90;;;;;;5108760;28;20228;-74
2022/03/01 07:48:57;;;;;;;1.38;1.00;;;2.40;99.90;;;;;;5106477;28;20207;-74
2022/03/01 07:51:23;;;;;;;1.98;1.77;;;2.40;99.90;;;;;;5107548;28;20199;-73
2022/03/01 07:53:50;;;;;;;0.95;0.95;;;2.50;99.90;;;;;;5095629;28;20261;-74
2022/03/01 07:56:16;;;;;;;1.85;1.40;;;2.40;99.90;;;;;;5104430;28;20674;-74
2022/03/01 07:58:43;;;;;;;1.27;1.20;;;2.50;99.90;;;;;;5094590;28;20222;-73
2022/03/01 08:01:08;;;;;;;2.45;2.25;;;2.40;99.90;;;;;;5102010;28;20203;-73
2022/03/01 08:03:34;;;;;;;0.80;0.80;;;2.30;99.90;;;;;;5108449;28;20594;-73
2022/03/01 08:06:00;;;;;;;0.80;0.80;;;2.20;99.90;;;;;;5107476;28;20203;-74
2022/03/01 08:08:27;;;;;;;1.55;1.45;;;2.20;99.90;;;;;;5108465;28;20331;-73
2022/03/01 08:10:53;;;;;;;0.80;0.80;;;2.10;99.90;;;;;;5106460;28;20685;-73
2022/03/01 08:13:18;;;;;;;1.42;1.00;;;2.10;99.90;;;;;;5106015;28;20199;-73
2022/03/01 08:15:44;;;;;;;0.80;0.80;;;2.10;99.90;;;;;;5097127;28;20200;-74
2022/03/01 08:18:10;;;;;;;3.03;1.58;;;2.00;99.90;;;;;;5107354;28;20234;-74
2022/03/01 08:20:35;;;;;;;1.33;1.23;;;2.00;99.90;;;;;;5106189;28;20713;-73
2022/03/01 08:23:02;;;;;;;0.85;0.85;;;2.00;99.90;;;;;;5108239;28;20222;-73
2022/03/01 08:25:28;;;;;;;1.25;1.20;;;2.00;99.90;;;;;;5107274;28;20699;-73
2022/03/01 08:27:56;;;;;;;0.85;0.85;;;2.00;99.90;;;;;;5092767;28;20195;-73
2022/03/01 08:30:22;;;;;;;1.08;1.08;;;2.00;99.90;;;;;;5107836;28;20277;-73
2022/03/01 08:32:49;;;;;;;0.70;0.70;;;2.10;99.90;;;;;;5106582;28;20250;-73
2022/03/01 08:35:15;;;;;;;1.10;0.98;;;2.10;99.90;;;;;;5107820;28;20257;-72
2022/03/01 08:37:40;;;;;;;4.63;2.10;;;2.10;99.90;;;;;;5107022;28;20686;-73
2022/03/01 08:40:07;;;;;;;1.40;1.02;;;2.10;99.90;;;;;;5110731;28;20202;-73
2022/03/01 08:42:39;;;;;;;0.80;0.80;;;2.20;99.90;;;;;;5094780;28;20196;-74
2022/03/01 08:45:18;;;;;;;1.00;1.00;;;2.20;99.90;;;;;;5116074;28;20208;-74
2022/03/01 08:47:44;;;;;;;2.30;1.33;;;2.20;99.90;;;;;;5076521;28;20218;-74
2022/03/01 08:50:11;;;;;;;0.70;0.70;;;2.20;99.90;;;;;;5111689;28;20192;-74
2022/03/01 08:52:36;;;;;;;0.55;0.55;;;2.20;99.90;;;;;;5095772;28;20643;-73
2022/03/01 08:55:02;;;;;;;0.73;0.73;;;2.20;99.90;;;;;;5112629;28;20206;-73
2022/03/01 08:57:28;;;;;;;0.70;0.70;;;2.30;99.90;;;;;;5088010;28;20273;-71
2022/03/01 08:59:54;;;;;;;4.70;1.00;;;2.30;99.90;;;;;;5113740;28;20203;-72
2022/03/01 09:02:20;;;;;;;0.70;0.70;;;2.30;99.90;;;;;;5095607;28;20690;-73
2022/03/01 09:04:45;;;;;;;0.98;0.98;;;2.40;99.90;;;;;;5111314;28;20203;-73
2022/03/01 09:07:11;;;;;;;0.57;0.57;;;2.40;99.90;;;;;;5095345;28;20204;-71
2022/03/01 09:09:37;;;;;;;0.80;0.80;;;2.50;99.90;;;;;;5110742;28;20239;-70
2022/03/01 09:12:03;;;;;;;2.58;1.13;;;2.50;99.90;;;;;;5097569;28;20223;-71
2022/03/01 09:14:29;;;;;;;0.50;0.50;;;2.50;99.90;;;;;;5102237;28;20203;-71
2022/03/01 09:16:54;;;;;;;3.78;2.25;;;2.60;99.90;;;;;;5093950;28;20229;-71
2022/03/01 09:19:20;;;;;;;3.90;3.10;;;2.60;99.90;;;;;;5107051;28;20674;-71
2022/03/01 09:21:46;;;;;;;2.08;1.55;;;2.60;99.90;;;;;;5097251;28;20204;-71
2022/03/01 09:24:12;;;;;;;1.55;1.45;;;2.60;99.90;;;;;;5106792;28;20686;-72
2022/03/01 09:26:38;;;;;;;0.70;0.70;;;2.60;99.90;;;;;;5087436;28;20219;-71
2022/03/01 09:29:04;;;;;;;1.40;1.30;;;2.60;99.90;;;;;;5098807;28;20654;-71
2022/03/01 09:31:30;;;;;;;0.80;0.80;;;2.60;99.90;;;;;;5088303;27;20554;-71
2022/03/01 09:33:56;;;;;;;0.60;0.60;;;2.50;99.90;;;;;;5097625;28;20199;-71
2022/03/01 09:36:22;;;;;;;1.50;1.40;;;2.50;99.90;;;;;;5101608;28;20682;-71
2022/03/01 09:38:49;;;;;;;0.80;0.80;;;2.50;99.90;;;;;;5103437;28;20290;-71
2022/03/01 09:41:15;;;;;;;0.95;0.90;;;2.50;99.90;;;;;;5111447;28;20199;-71
2022/03/01 09:43:41;;;;;;;1.15;1.15;;;2.50;99.90;;;;;;5109998;28;20229;-72
2022/03/01 09:46:08;;;;;;;0.80;0.80;;;2.50;99.90;;;;;;5107008;28;20651;-72
2022/03/01 09:48:35;;;;;;;0.73;0.73;;;2.40;99.90;;;;;;5108929;28;20716;-72
2022/03/01 09:51:04;;;;;;;2.70;2.50;;;2.30;99.90;;;;;;5096485;28;20196;-72
2022/03/01 09:53:30;;;;;;;2.67;1.52;;;2.40;99.90;;;;;;5109357;28;20659;-72
2022/03/01 09:55:56;;;;;;;0.75;0.75;;;2.30;99.90;;;;;;5096914;28;20223;-72
2022/03/01 09:58:22;;;;;;;1.48;1.27;;;2.30;99.90;;;;;;5110805;28;20203;-71
2022/03/01 10:00:48;;;;;;;0.70;0.70;;;2.30;99.90;;;;;;5110334;28;20204;-72
2022/03/01 10:03:16;;;;;;;2.33;2.13;;;2.30;99.90;;;;;;5110080;28;20192;-72
2022/03/01 10:05:43;;;;;;;0.80;0.80;;;2.30;99.90;;;;;;5110941;28;20203;-72
2022/03/01 10:08:17;;;;;;;0.85;0.85;;;2.30;99.90;;;;;;5111993;28;20670;-73
2022/03/01 10:10:48;;;;;;;0.80;0.80;;;2.20;99.90;;;;;;5076187;28;20299;-72
2022/03/01 10:13:21;;;;;;;1.95;0.98;;;2.20;99.90;;;;;;5110872;28;20195;-72
2022/03/01 10:15:49;;;;;;;0.93;0.93;;;2.10;99.90;;;;;;5093991;28;20196;-72
2022/03/01 10:18:39;;;;;;;1.20;1.10;;;2.10;99.90;;;;;;5103888;28;20208;-71
2022/03/01 10:21:10;;;;;;;1.33;1.23;;;2.20;99.90;;;;;;5085287;28;20219;-71
2022/03/01 10:23:38;;;;;;;1.08;1.05;;;2.10;99.90;;;;;;5111656;28;20234;-71
2022/03/01 10:26:15;;;;;;;1.67;0.98;;;2.10;99.90;;;;;;5110716;28;20210;-71
2022/03/01 10:28:43;;;;;;;1.08;1.08;;;2.10;99.90;;;;;;5108041;28;20673;-71
2022/03/01 10:31:18;;;;;;;1.50;1.40;;;2.10;99.90;;;;;;5110016;28;20196;-70
2022/03/01 10:34:02;;;;;;;0.90;0.90;;;2.10;99.90;;;;;;5110788;28;20235;-71
2022/03/01 10:36:34;;;;;;;0.90;0.90;;;2.00;99.90;;;;;;5111201;28;20674;-71
2022/03/01 10:39:09;;;;;;;0.65;0.65;;;1.90;99.90;;;;;;5111152;28;20207;-71
2022/03/01 10:41:37;;;;;;;0.73;0.73;;;1.90;99.90;;;;;;5109070;28;20692;-71
2022/03/01 10:44:04;;;;;;;0.80;0.80;;;1.90;99.90;;;;;;5111606;28;20678;-71
2022/03/01 10:46:41;;;;;;;0.70;0.70;;;1.90;99.90;;;;;;5108219;28;20738;-70
2022/03/01 10:49:18;;;;;;;1.95;1.85;;;2.00;99.90;;;;;;5110016;28;20282;-72
2022/03/01 10:51:59;;;;;;;1.58;1.25;;;2.00;99.90;;;;;;5108296;28;20582;-72
2022/03/01 10:54:30;;;;;;;1.50;1.38;;;2.00;99.90;;;;;;5110710;28;20265;-71
2022/03/01 10:56:57;;;;;;;0.70;0.70;;;2.10;99.90;;;;;;5109151;28;20196;-72
2022/03/01 10:59:24;;;;;;;0.90;0.90;;;2.10;99.90;;;;;;5108109;28;20203;-71
2022/03/01 11:01:51;;;;;;;1.30;1.23;;;2.20;99.90;;;;;;5107194;28;20208;-71
2022/03/01 11:04:17;;;;;;;4.90;2.65;;;2.10;99.90;;;;;;5107525;28;20203;-70
2022/03/01 11:06:46;;;;;;;0.82;0.82;;;2.20;99.90;;;;;;5107136;28;20650;-70
2022/03/01 11:09:12;;;;;;;0.80;0.80;;;2.20;99.90;;;;;;5107648;28;20282;-70
2022/03/01 11:11:40;;;;;;;1.70;1.60;;;2.20;99.90;;;;;;5109350;28;20215;-70
2022/03/01 11:14:09;;;;;;;1.00;0.95;;;2.20;99.90;;;;;;5102815;28;20633;-71
2022/03/01 11:16:54;;;;;;;1.20;1.10;;;2.20;99.90;;;;;;5103315;28;20207;-70
2022/03/01 11:19:42;;;;;;;1.55;1.45;;;2.20;99.90;;;;;;5109307;28;20206;-71
2022/03/01 11:22:19;;;;;;;0.93;0.93;;;2.10;99.90;;;;;;5109346;28;20616;-70
2022/03/01 11:24:46;;;;;;;0.70;0.70;;;2.10;99.90;;;;;;5105620;28;20227;-70
2022/03/01 11:27:19;;;;;;;1.60;1.35;;;2.10;99.90;;;;;;5109149;28;20692;-69
2022/03/01 11:29:45;;;;;;;1.52;1.42;;;2.10;99.90;;;;;;5106782;28;20203;-70
2022/03/01 11:32:16;;;;;;;0.60;0.60;;;2.10;99.90;;;;;;5105624;28;20199;-70
2022/03/01 11:34:43;;;;;;;1.63;1.52;;;2.20;99.90;;;;;;5109026;28;20203;-70
2022/03/01 11:37:18;;;;;;;1.20;1.13;;;2.30;99.90;;;;;;5108133;28;20207;-70
2022/03/01 11:39:54;;;;;;;0.80;0.80;;;2.40;99.90;;;;;;5107858;28;20207;-69
2022/03/01 11:42:21;;;;;;;1.42;1.33;;;2.50;99.90;;;;;;5107577;28;20573;-70
2022/03/01 11:44:54;;;;;;;1.33;1.20;;;2.50;99.90;;;;;;5105397;28;20207;-70
2022/03/01 11:47:28;;;;;;;0.75;0.75;;;2.50;99.90;;;;;;5107724;28;20204;-70
2022/03/01 11:49:54;;;;;;;0.70;0.70;;;2.50;99.90;;;;;;5107802;28;20199;-69
2022/03/01 11:52:25;;;;;;;2.45;1.10;;;2.50;99.90;;;;;;5108686;28;20238;-69
2022/03/01 11:54:54;;;;;;;5.45;1.98;;;2.50;99.90;;;;;;5105341;28;20203;-69
2022/03/01 11:57:25;;;;;;;1.48;1.38;;;2.50;99.90;;;;;;5106166;28;20230;-70
2022/03/01 11:59:54;;;;;;;2.00;1.25;;;2.60;99.90;;;;;;5107703;28;20616;-70
2022/03/01 12:02:21;;;;;;;0.70;0.70;;;2.60;99.90;;;;;;5108442;28;20207;-70
2022/03/01 12:04:49;;;;;;;0.68;0.68;;;2.60;99.90;;;;;;5102686;28;20301;-70
2022/03/01 12:07:18;;;;;;;0.80;0.80;;;2.60;99.90;;;;;;5107503;28;20191;-70
2022/03/01 12:09:59;;;;;;;1.40;1.30;;;2.70;99.90;;;;;;5108588;28;20199;-69
2022/03/01 12:12:44;;;;;;;0.95;0.95;;;2.70;99.90;;;;;;5096739;28;20206;-70
2022/03/01 12:15:12;;;;;;;1.00;1.00;;;2.70;99.90;;;;;;5098707;28;20203;-69
2022/03/01 12:17:46;;;;;;;2.35;1.35;;;2.70;99.90;;;;;;5097766;28;20205;-69
2022/03/01 12:20:17;;;;;;;0.73;0.73;;;2.70;99.90;;;;;;5106184;28;20207;-70
2022/03/01 12:23:08;;;;;;;0.70;0.70;;;2.70;99.90;;;;;;5107178;28;20230;-69
2022/03/01 12:25:38;;;;;;;1.00;1.00;;;2.70;99.90;;;;;;5105200;28;20223;-68
2022/03/01 12:28:08;;;;;;;0.70;0.70;;;2.80;99.90;;;;;;5106014;28;20204;-68
2022/03/01 12:30:42;;;;;;;0.80;0.80;;;2.80;99.90;;;;;;5105821;28;20612;-69
2022/03/01 12:33:13;;;;;;;0.70;0.70;;;2.70;99.90;;;;;;5092042;28;20215;-69
2022/03/01 12:35:40;;;;;;;7.82;2.05;;;2.70;99.90;;;;;;5089124;28;20672;-69
2022/03/01 12:38:11;;;;;;;0.90;0.90;;;2.70;99.90;;;;;;5108348;28;20191;-69
2022/03/01 12:40:38;;;;;;;1.02;1.02;;;2.70;99.90;;;;;;5104481;28;20187;-70
2022/03/01 12:43:07;;;;;;;0.93;0.93;;;2.70;99.90;;;;;;5108224;28;20188;-69
2022/03/01 12:45:38;;;;;;;2.70;2.50;;;2.70;99.90;;;;;;5106636;28;20234;-70
2022/03/01 12:48:04;;;;;;;0.80;0.80;;;2.70;99.90;;;;;;5107093;28;20242;-70
2022/03/01 12:50:31;;;;;;;0.57;0.57;;;2.60;99.90;;;;;;5107591;28;20577;-69
2022/03/01 12:52:58;;;;;;;0.70;0.70;;;2.60;99.90;;;;;;5093673;28;20227;-70